Terminal Aerodrome Forecast
Issued by NWS

Home | Current Version | Previous Version | Graphics & Text | Print | Product List | Glossary On
Versions: 1 2 3 4 5 6 7 8 9 10 11 12 13 14
000
FTUS45 KGGW 231121
TAFSDY
TAF
KSDY 231121Z 2312/2412 08010KT P6SM -SHRA VCTS OVC025CB
     FM231800 10012KT P6SM -RA OVC010
     FM240000 08008KT P6SM -RA OVC009
     FM240300 06006KT P6SM VCSH OVC005
     FM240600 02006KT P6SM RA OVC004=

USA.gov is the U.S. government's official web portal to all federal, state and local government web resources and services.